createdAt,value
2022-08-09T00:23:55.288Z,101609.73
2022-08-09T00:54:01.960Z,101621.38
2022-08-09T01:24:06.306Z,101626.75
2022-08-09T01:54:09.101Z,101613.88
2022-08-09T02:24:25.827Z,101620.44
2022-08-09T02:54:29.642Z,101629.75
2022-08-09T03:24:51.665Z,101637.63
2022-08-09T03:54:55.649Z,101643.06
2022-08-09T04:25:01.285Z,101659.68
2022-08-09T04:55:10.099Z,101665.81
2022-08-09T05:25:17.393Z,101681.64
2022-08-09T05:55:24.081Z,101686.28
2022-08-09T06:25:28.847Z,101695.25
2022-08-09T06:55:32.207Z,101719.81
2022-08-09T07:25:38.879Z,101741.25
2022-08-09T07:56:03.607Z,101758.05
2022-08-09T08:26:11.659Z,101763.59
2022-08-09T08:56:28.362Z,101749.66
2022-08-09T09:26:31.507Z,101757.20
2022-08-09T09:56:35.353Z,101754.08
2022-08-09T10:26:38.709Z,101726.86
2022-08-09T10:56:41.907Z,101709.78
2022-08-09T11:26:52.131Z,101700.74
2022-08-09T11:56:58.187Z,101696.21
2022-08-09T12:29:09.977Z,101676.37
2022-08-09T12:57:25.094Z,101646.75
2022-08-09T13:27:28.948Z,101636.26
2022-08-09T13:57:35.127Z,101642.80
2022-08-09T14:27:57.203Z,101630.11
2022-08-09T14:58:03.065Z,101620.21
2022-08-09T15:28:20.159Z,101611.36
2022-08-09T15:58:29.667Z,101605.52
2022-08-09T16:28:33.326Z,101602.97
2022-08-09T16:58:36.938Z,101619.06
2022-08-09T17:28:40.514Z,101645.56
2022-08-09T17:58:43.716Z,101654.85
2022-08-09T18:30:41.835Z,101673.02
2022-08-09T18:59:10.348Z,101704.63
2022-08-09T19:29:17.923Z,101723.77
2022-08-09T19:59:58.414Z,101739.22
2022-08-09T20:29:47.227Z,101758.55
2022-08-09T21:00:22.202Z,101746.88
2022-08-09T21:30:14.025Z,101776.77
2022-08-09T22:00:25.553Z,101788.13
2022-08-09T22:30:33.186Z,101786.53
2022-08-09T23:00:36.266Z,101794.53
2022-08-09T23:30:50.880Z,101790.02
